Time;durP1;ratioP1;P1;durP2;ratioP2;P2;SDS_P1;SDS_P2;PMS_P1;PMS_P2;Temp;Humidity;BMP_temperature;BMP_pressure;BME280_temperature;BME280_humidity;BME280_pressure;Samples;Min_cycle;Max_cycle;Signal;HPM_P1;HPM_P2
2023/07/26 00:00:15;;;;;;;4.28;1.33;;;14.50;99.90;;;;;;5003350;28;20084;-79
2023/07/26 00:03:01;;;;;;;5.03;1.40;;;14.40;99.90;;;;;;5020197;28;20571;-79
2023/07/26 00:05:48;;;;;;;6.22;1.30;;;14.40;99.90;;;;;;5038207;28;20303;-79
2023/07/26 00:08:35;;;;;;;5.43;1.65;;;14.50;99.90;;;;;;5006699;28;20134;-79
2023/07/26 00:11:21;;;;;;;4.32;1.95;;;14.40;99.90;;;;;;4996629;28;20068;-79
2023/07/26 00:14:07;;;;;;;6.40;1.60;;;14.40;99.90;;;;;;5006257;28;20393;-79
2023/07/26 00:16:53;;;;;;;3.30;1.50;;;14.30;99.90;;;;;;5021889;28;20033;-79
2023/07/26 00:19:39;;;;;;;6.20;1.60;;;14.30;99.90;;;;;;5021372;28;20041;-79
2023/07/26 00:22:25;;;;;;;7.18;1.67;;;14.20;99.90;;;;;;5021621;28;20037;-79
2023/07/26 00:25:12;;;;;;;6.30;1.58;;;14.20;99.90;;;;;;5042081;28;20171;-79
2023/07/26 00:27:58;;;;;;;9.13;1.60;;;14.10;99.90;;;;;;4997460;28;20394;-79
2023/07/26 00:30:44;;;;;;;4.22;1.60;;;14.10;99.90;;;;;;4993575;28;20057;-79
2023/07/26 00:33:31;;;;;;;6.20;1.50;;;14.00;99.90;;;;;;5009584;28;20052;-79
2023/07/26 00:36:17;;;;;;;4.50;1.80;;;14.10;99.90;;;;;;4990607;28;20474;-79
2023/07/26 00:39:03;;;;;;;3.60;1.48;;;14.10;99.90;;;;;;5002153;28;20636;-79
2023/07/26 00:41:49;;;;;;;5.47;1.50;;;14.10;99.90;;;;;;5015283;28;20040;-79
2023/07/26 00:44:35;;;;;;;5.82;1.42;;;14.20;99.90;;;;;;5036190;28;20615;-79
2023/07/26 00:47:21;;;;;;;4.93;1.40;;;14.20;99.90;;;;;;5037728;28;20041;-79
2023/07/26 00:50:07;;;;;;;4.57;1.80;;;14.30;99.90;;;;;;5040798;28;20032;-79
2023/07/26 00:52:53;;;;;;;3.42;1.52;;;14.30;99.90;;;;;;5022574;28;20046;-79
2023/07/26 00:55:39;;;;;;;4.32;1.60;;;14.30;99.90;;;;;;5005614;28;20048;-79
2023/07/26 00:58:26;;;;;;;8.95;1.83;;;14.30;99.90;;;;;;5021501;28;20075;-79
2023/07/26 01:01:12;;;;;;;4.75;1.35;;;14.20;99.90;;;;;;5005001;28;20484;-79
2023/07/26 01:03:58;;;;;;;5.80;1.55;;;14.00;99.90;;;;;;5031918;28;20117;-79
2023/07/26 01:07:07;;;;;;;6.32;1.83;;;13.80;99.90;;;;;;5022320;28;20121;-78
2023/07/26 01:10:07;;;;;;;5.10;1.67;;;13.70;99.90;;;;;;5032059;28;20049;-79
2023/07/26 01:12:55;;;;;;;4.93;1.95;;;13.60;99.90;;;;;;5035143;28;20048;-79
2023/07/26 01:15:41;;;;;;;5.43;1.50;;;13.50;99.90;;;;;;5022370;28;20106;-79
2023/07/26 01:18:27;;;;;;;6.25;1.70;;;13.60;99.90;;;;;;5016058;28;20045;-78
2023/07/26 01:21:13;;;;;;;5.72;1.55;;;13.60;99.90;;;;;;5032980;28;20440;-79
2023/07/26 01:23:59;;;;;;;5.22;1.75;;;13.50;99.90;;;;;;5009529;28;20045;-79
2023/07/26 01:26:45;;;;;;;7.80;1.60;;;13.60;99.90;;;;;;5026175;28;20037;-79
2023/07/26 01:29:31;;;;;;;8.57;1.63;;;13.50;99.90;;;;;;5030409;28;20033;-79
2023/07/26 01:32:17;;;;;;;3.95;1.48;;;13.50;99.90;;;;;;5021191;28;20047;-79
2023/07/26 01:35:03;;;;;;;6.57;1.55;;;13.40;99.90;;;;;;5019103;28;20051;-79
2023/07/26 01:37:50;;;;;;;4.82;1.77;;;13.50;99.90;;;;;;5001078;28;20128;-79
2023/07/26 01:40:36;;;;;;;5.13;1.63;;;13.60;99.90;;;;;;5006732;28;20044;-79
2023/07/26 01:43:22;;;;;;;4.05;1.63;;;13.70;99.90;;;;;;5002512;28;20487;-79
2023/07/26 01:46:12;;;;;;;8.38;2.10;;;13.80;99.90;;;;;;5004072;28;20120;-79
2023/07/26 01:48:58;;;;;;;8.07;2.15;;;13.70;99.90;;;;;;5038391;28;20045;-79
2023/07/26 01:51:45;;;;;;;6.72;1.48;;;13.60;99.90;;;;;;5014322;28;20593;-79
2023/07/26 01:54:31;;;;;;;7.43;1.73;;;13.50;99.90;;;;;;5014850;28;20041;-79
2023/07/26 01:57:19;;;;;;;4.25;1.70;;;13.40;99.90;;;;;;5014080;28;20087;-79
2023/07/26 02:00:07;;;;;;;5.90;1.77;;;13.40;99.90;;;;;;5001312;28;20041;-79
2023/07/26 02:02:53;;;;;;;8.70;2.58;;;13.30;99.90;;;;;;5016557;28;20050;-78
2023/07/26 02:05:43;;;;;;;2.97;1.50;;;13.30;99.90;;;;;;5026271;28;20033;-79
2023/07/26 02:08:29;;;;;;;4.95;1.70;;;13.20;99.90;;;;;;5004963;28;20037;-78
2023/07/26 02:11:15;;;;;;;6.00;1.77;;;13.20;99.90;;;;;;5015470;28;20156;-78
2023/07/26 02:14:01;;;;;;;6.03;1.90;;;13.30;99.90;;;;;;5018778;28;20037;-79
2023/07/26 02:16:47;;;;;;;7.28;2.17;;;13.30;99.90;;;;;;5008750;28;20041;-79
2023/07/26 02:19:33;;;;;;;3.20;1.70;;;13.30;99.90;;;;;;5020487;28;20040;-79
2023/07/26 02:22:19;;;;;;;6.70;1.63;;;13.20;99.90;;;;;;5030035;28;20128;-79
2023/07/26 02:25:05;;;;;;;18.25;2.63;;;13.10;99.90;;;;;;5039856;28;20053;-79
2023/07/26 02:27:53;;;;;;;7.00;1.88;;;13.10;99.90;;;;;;5000551;28;20034;-79
2023/07/26 02:30:39;;;;;;;4.70;2.13;;;13.10;99.90;;;;;;5000189;28;20182;-79
2023/07/26 02:33:25;;;;;;;7.00;2.28;;;13.10;99.90;;;;;;5006504;28;20051;-79
2023/07/26 02:36:11;;;;;;;4.65;1.83;;;13.00;99.90;;;;;;5014379;28;20115;-79
2023/07/26 02:38:57;;;;;;;6.15;1.90;;;13.10;99.90;;;;;;5002955;28;20048;-79
2023/07/26 02:41:43;;;;;;;7.60;1.95;;;13.10;99.90;;;;;;5000424;28;20121;-79
2023/07/26 02:44:29;;;;;;;8.57;2.38;;;13.20;99.90;;;;;;5022957;28;20056;-79
2023/07/26 02:47:15;;;;;;;5.50;2.00;;;13.20;99.90;;;;;;5000789;28;20042;-79
2023/07/26 02:50:03;;;;;;;8.68;1.95;;;13.30;99.90;;;;;;5002051;28;20470;-79
2023/07/26 02:52:49;;;;;;;4.97;1.67;;;13.30;99.90;;;;;;5014768;28;20045;-79
2023/07/26 02:55:35;;;;;;;4.20;2.00;;;13.30;99.90;;;;;;5007275;28;20042;-79
2023/07/26 02:58:21;;;;;;;4.30;1.90;;;13.20;99.90;;;;;;4987064;28;20183;-79
2023/07/26 03:01:09;;;;;;;6.82;1.77;;;13.30;99.90;;;;;;5002526;28;20107;-79
2023/07/26 03:03:55;;;;;;;6.03;2.20;;;13.20;99.90;;;;;;5021168;28;20141;-79
2023/07/26 03:06:41;;;;;;;6.43;2.30;;;13.20;99.90;;;;;;5033629;28;20124;-78
2023/07/26 03:09:27;;;;;;;5.88;1.80;;;13.10;99.90;;;;;;5022640;28;20049;-79
2023/07/26 03:12:13;;;;;;;7.50;2.00;;;13.00;99.90;;;;;;5019104;28;20065;-78
2023/07/26 03:14:59;;;;;;;4.43;1.65;;;13.00;99.90;;;;;;5021307;28;20377;-78
2023/07/26 03:17:45;;;;;;;6.75;1.67;;;13.20;99.90;;;;;;5019201;28;20037;-79
2023/07/26 03:20:31;;;;;;;3.85;2.05;;;13.10;99.90;;;;;;5013210;28;20069;-79
2023/07/26 03:23:17;;;;;;;6.35;1.85;;;13.00;99.90;;;;;;5012939;28;20049;-79
2023/07/26 03:26:03;;;;;;;6.68;1.70;;;13.00;99.90;;;;;;5013477;28;20042;-79
2023/07/26 03:28:49;;;;;;;5.35;1.55;;;13.20;99.90;;;;;;5022518;28;20453;-79
2023/07/26 03:31:35;;;;;;;4.18;1.85;;;13.30;99.90;;;;;;5000275;28;20048;-79
2023/07/26 03:34:21;;;;;;;3.38;1.67;;;13.20;99.90;;;;;;5018291;28;20063;-79
2023/07/26 03:37:07;;;;;;;5.68;1.80;;;13.20;99.90;;;;;;5036252;28;20041;-79
2023/07/26 03:39:53;;;;;;;4.45;1.75;;;13.20;99.90;;;;;;5002354;28;20034;-79
2023/07/26 03:42:40;;;;;;;4.50;1.90;;;13.10;99.90;;;;;;5033286;28;20442;-79
2023/07/26 03:45:28;;;;;;;6.80;2.20;;;13.00;99.90;;;;;;5025066;28;20041;-79
2023/07/26 03:48:14;;;;;;;3.17;1.73;;;13.00;99.90;;;;;;5043598;28;20047;-79
2023/07/26 03:51:00;;;;;;;4.50;1.85;;;13.00;99.90;;;;;;5039067;28;20068;-78
2023/07/26 03:53:46;;;;;;;4.22;2.00;;;13.00;99.90;;;;;;5008323;28;20115;-79
2023/07/26 03:56:32;;;;;;;4.60;1.85;;;12.90;99.90;;;;;;5015687;28;20067;-78
2023/07/26 03:59:18;;;;;;;7.65;1.92;;;13.00;99.90;;;;;;5029655;28;20058;-79
2023/07/26 04:02:05;;;;;;;4.20;1.90;;;13.10;99.90;;;;;;5004213;28;20076;-78
2023/07/26 04:04:50;;;;;;;4.95;1.98;;;13.00;99.90;;;;;;5003608;28;20056;-79
2023/07/26 04:07:38;;;;;;;8.88;2.03;;;13.00;99.90;;;;;;5003930;28;20665;-79
2023/07/26 04:10:26;;;;;;;5.75;2.50;;;13.00;99.90;;;;;;5009693;28;20115;-79
2023/07/26 04:13:12;;;;;;;10.07;2.45;;;13.00;99.90;;;;;;5022878;28;20091;-79
2023/07/26 04:15:59;;;;;;;5.95;2.25;;;13.00;99.90;;;;;;5008491;28;20385;-78
2023/07/26 04:18:45;;;;;;;6.60;2.08;;;13.00;99.90;;;;;;5010496;28;20365;-79
2023/07/26 04:21:31;;;;;;;4.85;2.03;;;13.10;99.90;;;;;;5022700;28;20052;-79
2023/07/26 04:24:17;;;;;;;6.57;2.38;;;13.20;99.90;;;;;;5020044;28;20063;-79
2023/07/26 04:27:03;;;;;;;6.22;1.77;;;13.20;99.90;;;;;;5019064;28;20683;-79
2023/07/26 04:29:50;;;;;;;5.55;2.35;;;13.30;99.90;;;;;;5022060;28;20359;-79
2023/07/26 04:32:36;;;;;;;4.85;1.70;;;13.30;99.90;;;;;;5023057;28;20041;-79
2023/07/26 04:35:22;;;;;;;7.65;2.55;;;13.30;99.90;;;;;;5004899;28;20053;-79
2023/07/26 04:38:08;;;;;;;3.90;1.65;;;13.20;99.90;;;;;;4997874;28;20111;-79
2023/07/26 04:40:54;;;;;;;6.50;2.15;;;13.30;99.90;;;;;;5007614;28;20049;-79
2023/07/26 04:43:40;;;;;;;4.03;2.05;;;13.20;99.90;;;;;;5022662;28;20053;-79
2023/07/26 04:46:26;;;;;;;6.95;2.35;;;13.20;99.90;;;;;;5035539;28;20036;-79
2023/07/26 04:49:12;;;;;;;4.53;2.25;;;13.10;99.90;;;;;;5040632;28;20481;-79
2023/07/26 04:51:58;;;;;;;7.88;2.00;;;13.10;99.90;;;;;;5022850;28;20045;-79
2023/07/26 04:54:44;;;;;;;5.57;2.50;;;13.00;99.90;;;;;;5036438;28;20041;-78
2023/07/26 04:57:30;;;;;;;9.82;1.85;;;13.00;99.90;;;;;;5040775;28;20418;-79
2023/07/26 05:00:16;;;;;;;4.80;1.80;;;13.10;99.90;;;;;;5041508;28;20037;-79
2023/07/26 05:03:04;;;;;;;10.23;2.00;;;13.10;99.90;;;;;;5027611;28;20430;-78
2023/07/26 05:05:50;;;;;;;5.27;1.67;;;13.20;99.90;;;;;;5021978;28;20045;-79
2023/07/26 05:08:36;;;;;;;8.25;2.10;;;13.20;99.90;;;;;;5016108;28;20124;-78
2023/07/26 05:11:22;;;;;;;7.18;2.08;;;13.20;99.90;;;;;;5021669;28;20165;-79
2023/07/26 05:14:08;;;;;;;5.40;2.17;;;13.20;99.90;;;;;;5011578;28;20057;-78
2023/07/26 05:16:55;;;;;;;3.00;1.70;;;13.10;99.90;;;;;;4987512;28;20034;-78
2023/07/26 05:19:41;;;;;;;5.28;2.05;;;13.10;99.90;;;;;;5001077;28;20046;-78
2023/07/26 05:22:27;;;;;;;5.65;1.80;;;13.20;99.90;;;;;;5005208;28;20061;-78
2023/07/26 05:25:13;;;;;;;5.10;2.08;;;13.30;99.90;;;;;;5004606;28;20038;-79
2023/07/26 05:27:59;;;;;;;6.03;2.00;;;13.30;99.90;;;;;;5016907;28;20139;-78
2023/07/26 05:30:45;;;;;;;4.57;2.00;;;13.40;99.90;;;;;;5014773;28;20044;-78
2023/07/26 05:33:31;;;;;;;7.95;2.30;;;13.30;99.90;;;;;;5018329;28;20102;-78
2023/07/26 05:36:17;;;;;;;6.28;2.08;;;13.40;99.90;;;;;;5039754;28;20037;-78
2023/07/26 05:39:03;;;;;;;7.80;2.00;;;13.40;99.90;;;;;;5021710;28;20360;-79
2023/07/26 05:41:49;;;;;;;7.07;2.17;;;13.50;99.90;;;;;;5020048;28;20111;-78
2023/07/26 05:44:35;;;;;;;4.80;1.80;;;13.50;99.90;;;;;;5035049;28;20056;-78
2023/07/26 05:47:21;;;;;;;4.53;2.00;;;13.60;99.90;;;;;;5035146;28;20441;-78
2023/07/26 05:50:07;;;;;;;9.32;2.10;;;13.60;99.90;;;;;;5034617;28;20041;-79
2023/07/26 05:52:53;;;;;;;7.25;2.10;;;13.60;99.90;;;;;;5021189;28;20030;-79
2023/07/26 05:55:39;;;;;;;6.72;2.20;;;13.70;99.90;;;;;;5021258;28;20077;-78
2023/07/26 05:58:25;;;;;;;8.43;2.35;;;13.70;99.90;;;;;;5020927;28;20033;-78
2023/07/26 06:01:12;;;;;;;6.15;2.53;;;13.70;99.90;;;;;;5019239;28;20037;-79
2023/07/26 06:03:58;;;;;;;5.60;2.28;;;13.80;99.90;;;;;;5001763;28;20049;-78
2023/07/26 06:06:45;;;;;;;5.57;1.90;;;13.70;99.90;;;;;;5001175;28;20048;-78
2023/07/26 06:09:31;;;;;;;5.80;2.03;;;13.70;99.90;;;;;;5047529;28;20128;-78
2023/07/26 06:12:17;;;;;;;6.00;2.15;;;13.70;99.90;;;;;;5028014;28;20121;-79
2023/07/26 06:15:03;;;;;;;6.20;2.03;;;13.80;99.90;;;;;;5022301;28;20037;-78
2023/07/26 06:17:50;;;;;;;5.10;2.13;;;13.80;99.90;;;;;;5027626;28;20045;-78
2023/07/26 06:20:37;;;;;;;8.30;2.30;;;13.80;99.90;;;;;;5044891;28;20083;-78
2023/07/26 06:23:23;;;;;;;9.15;2.38;;;13.90;99.90;;;;;;5038115;28;20115;-78
2023/07/26 06:26:09;;;;;;;8.35;2.35;;;13.90;99.90;;;;;;4986545;28;20042;-78
2023/07/26 06:28:55;;;;;;;6.45;2.38;;;14.00;99.90;;;;;;5013546;28;20037;-78
2023/07/26 06:31:41;;;;;;;8.13;2.00;;;13.90;99.90;;;;;;5025160;28;20037;-78
2023/07/26 06:34:27;;;;;;;5.18;2.15;;;14.00;99.90;;;;;;5039083;28;20357;-75
2023/07/26 06:37:13;;;;;;;6.25;2.78;;;14.10;99.90;;;;;;5017008;28;20037;-76
2023/07/26 06:39:59;;;;;;;7.53;2.35;;;14.10;99.90;;;;;;5034905;28;20373;-75
2023/07/26 06:42:45;;;;;;;6.47;2.17;;;14.10;99.90;;;;;;5032847;28;20049;-75
2023/07/26 06:45:31;;;;;;;3.13;1.83;;;14.30;99.90;;;;;;5009653;28;20037;-75
2023/07/26 06:48:18;;;;;;;8.70;2.20;;;14.30;99.90;;;;;;5032465;28;20044;-77
2023/07/26 06:51:04;;;;;;;5.72;2.05;;;14.40;99.90;;;;;;5019300;28;20044;-77
2023/07/26 06:53:50;;;;;;;6.88;2.45;;;14.40;99.90;;;;;;5019938;28;20106;-75
2023/07/26 06:56:36;;;;;;;7.63;2.47;;;14.50;99.90;;;;;;5021842;28;20354;-75
2023/07/26 06:59:22;;;;;;;7.63;2.13;;;14.50;99.90;;;;;;5034441;28;20457;-75
2023/07/26 07:02:08;;;;;;;5.78;2.35;;;14.60;99.90;;;;;;5029616;28;20551;-75
2023/07/26 07:04:54;;;;;;;6.30;2.35;;;14.60;99.90;;;;;;5018098;28;20056;-76
2023/07/26 07:07:40;;;;;;;7.10;2.20;;;14.60;99.90;;;;;;5029820;28;20041;-75
2023/07/26 07:10:26;;;;;;;5.80;2.47;;;14.60;99.90;;;;;;5017102;28;20121;-76
2023/07/26 07:13:12;;;;;;;6.97;2.50;;;14.70;99.90;;;;;;5023146;28;20127;-75
2023/07/26 07:15:58;;;;;;;6.07;2.30;;;14.80;99.90;;;;;;5034583;28;20041;-75
2023/07/26 07:18:44;;;;;;;5.20;2.40;;;14.80;99.90;;;;;;5001616;28;20473;-75
2023/07/26 07:21:30;;;;;;;5.82;2.20;;;14.90;99.90;;;;;;5028508;28;20103;-75
2023/07/26 07:24:16;;;;;;;4.43;2.15;;;14.80;99.90;;;;;;5019409;28;20052;-75
2023/07/26 07:27:02;;;;;;;5.85;2.67;;;14.80;99.90;;;;;;5045080;28;20358;-75
2023/07/26 07:29:48;;;;;;;8.18;2.22;;;14.80;99.90;;;;;;5033743;28;20045;-75
2023/07/26 07:32:34;;;;;;;6.20;2.20;;;14.70;99.90;;;;;;5010966;28;20461;-75
2023/07/26 07:35:20;;;;;;;7.20;2.35;;;14.80;99.90;;;;;;5033386;28;20049;-75
2023/07/26 07:38:06;;;;;;;7.40;2.38;;;14.70;99.90;;;;;;5035409;28;20051;-76
2023/07/26 07:40:52;;;;;;;6.93;2.38;;;14.80;99.90;;;;;;5014877;28;20495;-75
2023/07/26 07:43:38;;;;;;;5.82;1.98;;;14.80;99.90;;;;;;5029242;28;20095;-75
2023/07/26 07:46:28;;;;;;;8.40;1.85;;;14.90;99.90;;;;;;4998436;28;20037;-76
2023/07/26 07:49:14;;;;;;;8.65;2.65;;;15.00;99.90;;;;;;5013152;28;20044;-75
2023/07/26 07:52:00;;;;;;;4.50;2.05;;;15.10;99.90;;;;;;5033993;28;20078;-75
2023/07/26 07:54:46;;;;;;;9.60;2.17;;;15.20;99.90;;;;;;5020873;28;20124;-75
2023/07/26 07:57:32;;;;;;;5.32;1.90;;;15.40;99.90;;;;;;5041159;28;20041;-75
2023/07/26 08:00:18;;;;;;;5.45;1.90;;;15.40;99.90;;;;;;4993088;28;20048;-75
2023/07/26 08:03:05;;;;;;;5.78;1.58;;;15.30;99.90;;;;;;5019319;28;20045;-75
2023/07/26 08:05:51;;;;;;;6.90;1.65;;;15.40;99.90;;;;;;5030154;28;20158;-75
2023/07/26 08:08:39;;;;;;;5.18;1.80;;;15.60;99.90;;;;;;5035182;28;20119;-75
2023/07/26 08:11:25;;;;;;;3.30;1.75;;;15.70;99.90;;;;;;5029396;28;20064;-75
2023/07/26 08:14:11;;;;;;;12.88;2.17;;;15.70;99.90;;;;;;5036441;28;20048;-75
2023/07/26 08:16:57;;;;;;;4.75;1.50;;;15.70;99.90;;;;;;5037262;28;20053;-75
2023/07/26 08:19:43;;;;;;;4.88;1.42;;;15.70;99.90;;;;;;5018564;28;20037;-75
2023/07/26 08:22:29;;;;;;;5.82;1.50;;;15.70;99.90;;;;;;5018343;28;20049;-75
2023/07/26 08:25:15;;;;;;;3.63;1.80;;;15.70;99.90;;;;;;5020122;28;20041;-75
2023/07/26 08:28:01;;;;;;;3.90;1.60;;;15.70;99.90;;;;;;5036345;28;20032;-75
2023/07/26 08:30:47;;;;;;;5.70;1.45;;;15.70;99.90;;;;;;5019460;28;20049;-76
2023/07/26 08:33:33;;;;;;;5.47;1.77;;;15.50;99.90;;;;;;5007623;28;20043;-75
2023/07/26 08:36:19;;;;;;;3.42;1.52;;;15.40;99.90;;;;;;5051165;28;20552;-75
2023/07/26 08:39:05;;;;;;;3.60;1.30;;;15.50;99.90;;;;;;5022286;28;20049;-76
2023/07/26 08:41:51;;;;;;;5.07;1.58;;;15.60;99.90;;;;;;4990858;28;20060;-75
2023/07/26 08:44:37;;;;;;;3.83;1.35;;;15.80;99.90;;;;;;5032118;28;20049;-75
2023/07/26 08:47:23;;;;;;;3.92;1.40;;;15.90;99.90;;;;;;5010143;28;20041;-76
2023/07/26 08:50:10;;;;;;;4.35;1.38;;;16.10;99.90;;;;;;5034549;28;20473;-76
2023/07/26 08:52:56;;;;;;;2.83;1.38;;;16.20;99.90;;;;;;5019499;28;20080;-75
2023/07/26 08:55:43;;;;;;;5.22;1.60;;;16.00;99.90;;;;;;5034421;28;20037;-75
2023/07/26 08:58:29;;;;;;;2.90;1.48;;;16.10;99.90;;;;;;5033262;28;20444;-75
2023/07/26 09:01:15;;;;;;;4.40;1.23;;;16.00;99.90;;;;;;5009720;28;20040;-75
2023/07/26 09:04:02;;;;;;;4.32;1.42;;;15.40;99.90;;;;;;5022973;28;20056;-75
2023/07/26 09:06:48;;;;;;;3.45;1.45;;;15.00;99.90;;;;;;5019867;28;20041;-75
2023/07/26 09:09:35;;;;;;;3.35;1.52;;;15.00;99.90;;;;;;5015540;28;20055;-76
2023/07/26 09:12:27;;;;;;;3.80;1.67;;;15.10;99.90;;;;;;5018589;28;20071;-75
2023/07/26 09:15:13;;;;;;;3.67;1.67;;;15.10;99.90;;;;;;5034188;28;20469;-75
2023/07/26 09:18:00;;;;;;;4.10;2.28;;;15.20;99.90;;;;;;5021218;28;20124;-75
2023/07/26 09:20:46;;;;;;;4.05;1.90;;;15.00;99.90;;;;;;5021141;28;20044;-75
2023/07/26 09:23:42;;;;;;;3.63;1.80;;;15.00;99.90;;;;;;5035124;28;20127;-75
2023/07/26 09:26:39;;;;;;;4.15;2.10;;;15.00;99.90;;;;;;5019811;28;20044;-76
2023/07/26 09:29:25;;;;;;;3.35;1.80;;;15.10;99.90;;;;;;5049795;28;20036;-75
2023/07/26 09:32:11;;;;;;;4.43;2.25;;;15.20;99.90;;;;;;5030986;28;20036;-76
2023/07/26 09:34:59;;;;;;;4.13;1.60;;;15.30;99.90;;;;;;5029875;28;20088;-76
2023/07/26 09:37:45;;;;;;;3.42;1.52;;;15.30;99.90;;;;;;5031161;28;20045;-75
2023/07/26 09:40:33;;;;;;;4.18;1.77;;;15.40;99.90;;;;;;4989999;28;20037;-76
2023/07/26 09:43:29;;;;;;;2.22;1.48;;;15.50;99.90;;;;;;5015175;28;20049;-76
2023/07/26 09:46:15;;;;;;;3.50;1.60;;;15.50;99.90;;;;;;5004096;28;20037;-76
2023/07/26 09:49:02;;;;;;;3.40;1.48;;;15.50;99.90;;;;;;5022742;28;20040;-75
2023/07/26 09:51:53;;;;;;;5.10;1.85;;;15.60;99.90;;;;;;5030435;28;20074;-76
2023/07/26 09:54:39;;;;;;;5.32;1.95;;;15.70;99.90;;;;;;5030483;28;20190;-75
2023/07/26 09:57:25;;;;;;;5.15;1.35;;;15.60;99.90;;;;;;5030809;28;20080;-75
2023/07/26 10:00:12;;;;;;;3.25;1.48;;;15.60;99.90;;;;;;5007456;28;20125;-76
2023/07/26 10:02:59;;;;;;;1.38;1.02;;;15.60;99.90;;;;;;5017566;28;20041;-75
2023/07/26 10:05:47;;;;;;;2.00;0.93;;;15.20;99.90;;;;;;5045960;28;20068;-75
2023/07/26 10:08:34;;;;;;;3.95;1.42;;;15.00;99.90;;;;;;5027464;28;20041;-75
2023/07/26 10:11:20;;;;;;;1.58;1.05;;;15.00;99.90;;;;;;5031424;28;20068;-76
2023/07/26 10:14:06;;;;;;;1.85;1.10;;;15.10;99.90;;;;;;5022430;28;20051;-75
2023/07/26 10:16:52;;;;;;;3.63;1.75;;;15.20;99.90;;;;;;5027118;28;20373;-75
2023/07/26 10:19:38;;;;;;;4.15;1.45;;;15.20;99.90;;;;;;5003894;28;20037;-75
2023/07/26 10:22:24;;;;;;;2.72;1.35;;;15.30;99.90;;;;;;5028445;28;20049;-75
2023/07/26 10:25:11;;;;;;;4.18;1.70;;;15.30;99.90;;;;;;5033966;28;20071;-76
2023/07/26 10:27:57;;;;;;;4.75;1.60;;;15.40;99.90;;;;;;5032461;28;20048;-75
2023/07/26 10:30:44;;;;;;;4.15;1.85;;;15.80;99.90;;;;;;5014740;28;20342;-75
2023/07/26 10:33:30;;;;;;;3.40;1.67;;;15.90;99.90;;;;;;4978483;28;20477;-75
2023/07/26 10:36:16;;;;;;;4.03;1.88;;;16.00;99.90;;;;;;5031353;28;20040;-75
2023/07/26 10:39:04;;;;;;;2.85;1.80;;;16.20;99.90;;;;;;5021415;28;20334;-75
2023/07/26 10:41:50;;;;;;;5.13;1.52;;;16.50;99.90;;;;;;5034451;28;20041;-75
2023/07/26 10:44:42;;;;;;;2.38;1.20;;;16.70;99.90;;;;;;5029922;28;20060;-75
2023/07/26 10:47:29;;;;;;;3.42;1.30;;;16.90;99.90;;;;;;4994312;28;20044;-75
2023/07/26 10:50:15;;;;;;;3.20;1.35;;;16.80;99.90;;;;;;5032678;28;20473;-75
2023/07/26 10:53:28;;;;;;;1.98;1.20;;;17.00;99.90;;;;;;5004946;28;20029;-75
2023/07/26 10:56:25;;;;;;;4.85;1.70;;;17.20;99.50;;;;;;5034347;28;20079;-76
2023/07/26 10:59:20;;;;;;;3.40;1.10;;;17.20;98.90;;;;;;5010720;28;20480;-76
2023/07/26 11:02:06;;;;;;;2.60;1.27;;;17.30;98.80;;;;;;5034883;28;20386;-75
2023/07/26 11:04:56;;;;;;;2.53;1.00;;;17.30;98.60;;;;;;5014796;28;20059;-75
2023/07/26 11:08:04;;;;;;;2.60;1.05;;;17.50;98.40;;;;;;5033653;28;20382;-75
2023/07/26 11:10:51;;;;;;;;;;;17.70;98.20;;;;;;5016831;28;20044;-75
2023/07/26 11:13:37;;;;;;;3.42;1.15;;;17.90;97.30;;;;;;5027038;28;19913;-75
2023/07/26 11:16:23;;;;;;;2.35;1.05;;;18.20;98.60;;;;;;5029959;28;20049;-75
2023/07/26 11:19:09;;;;;;;2.10;1.00;;;18.20;97.30;;;;;;5034047;28;20056;-75
2023/07/26 11:22:04;;;;;;;4.32;1.30;;;18.40;96.60;;;;;;5034222;28;20095;-76
2023/07/26 11:24:50;;;;;;;1.88;1.05;;;18.40;96.70;;;;;;5024199;28;20041;-75
2023/07/26 11:27:36;;;;;;;2.33;1.15;;;18.60;96.70;;;;;;5033883;28;20052;-76
2023/07/26 11:30:22;;;;;;;2.70;1.20;;;18.30;96.30;;;;;;5002771;28;20033;-76
2023/07/26 11:33:09;;;;;;;3.15;1.55;;;18.30;97.40;;;;;;5014287;28;20052;-76
2023/07/26 11:35:55;;;;;;;3.22;1.40;;;18.70;97.30;;;;;;5028852;28;20037;-76
2023/07/26 11:38:44;;;;;;;2.17;1.10;;;18.50;95.70;;;;;;5035935;28;20123;-75
2023/07/26 11:41:30;;;;;;;3.22;1.40;;;18.50;96.50;;;;;;5018545;28;20424;-76
2023/07/26 11:44:16;;;;;;;4.53;1.25;;;18.20;96.40;;;;;;5001966;28;20083;-75
2023/07/26 11:47:02;;;;;;;7.03;1.40;;;18.00;96.20;;;;;;5037745;28;20041;-75
2023/07/26 11:49:48;;;;;;;3.80;2.10;;;17.70;97.20;;;;;;5027338;28;20038;-77
2023/07/26 11:52:34;;;;;;;6.40;1.90;;;17.30;99.90;;;;;;5038294;28;20048;-76
2023/07/26 11:55:20;;;;;;;4.22;2.10;;;16.80;99.90;;;;;;5038059;28;20045;-76
2023/07/26 11:58:08;;;;;;;3.95;1.90;;;16.80;99.90;;;;;;4988709;28;20049;-76
2023/07/26 12:00:58;;;;;;;5.05;2.42;;;16.90;99.90;;;;;;5037475;28;20055;-75
2023/07/26 12:03:44;;;;;;;4.55;2.30;;;17.30;99.90;;;;;;5024764;28;20194;-76
2023/07/26 12:06:30;;;;;;;4.65;2.17;;;17.50;99.90;;;;;;5034411;28;20041;-76
2023/07/26 12:09:16;;;;;;;3.38;1.75;;;17.50;99.90;;;;;;5035873;28;20446;-76
2023/07/26 12:12:03;;;;;;;3.90;2.00;;;17.60;99.90;;;;;;4998382;28;20051;-76
2023/07/26 12:14:49;;;;;;;2.63;1.40;;;17.50;99.90;;;;;;5030827;28;20381;-75
2023/07/26 12:17:35;;;;;;;2.97;1.50;;;17.20;99.90;;;;;;5030230;28;20504;-76
2023/07/26 12:20:22;;;;;;;1.95;1.20;;;16.90;99.90;;;;;;5027619;28;20045;-76
2023/07/26 12:23:08;;;;;;;1.98;1.00;;;16.80;99.90;;;;;;5019565;28;20112;-76
2023/07/26 12:26:00;;;;;;;2.55;1.27;;;16.80;99.50;;;;;;5037581;28;20033;-76
2023/07/26 12:28:46;;;;;;;2.85;1.30;;;17.00;99.90;;;;;;5031575;28;20037;-76
2023/07/26 12:31:33;;;;;;;1.63;1.10;;;17.20;98.50;;;;;;4994325;28;20056;-76
2023/07/26 12:34:19;;;;;;;3.42;1.23;;;17.40;98.10;;;;;;5036240;28;20126;-76
2023/07/26 12:37:05;;;;;;;3.15;1.23;;;17.60;99.00;;;;;;5048379;28;20041;-76
2023/07/26 12:39:51;;;;;;;3.45;1.17;;;17.70;96.30;;;;;;5036943;28;20048;-76
2023/07/26 12:42:37;;;;;;;1.85;1.27;;;17.90;95.60;;;;;;5024209;28;20133;-76
2023/07/26 12:45:23;;;;;;;1.83;1.20;;;18.20;95.90;;;;;;5017158;28;20126;-76
2023/07/26 12:48:09;;;;;;;2.95;1.40;;;18.40;96.00;;;;;;5037760;28;20037;-76
2023/07/26 12:50:55;;;;;;;2.75;1.23;;;18.50;95.40;;;;;;5023113;28;20033;-76
2023/07/26 12:53:42;;;;;;;2.88;1.35;;;18.40;94.40;;;;;;5016415;28;20064;-73
2023/07/26 12:56:28;;;;;;;2.83;1.50;;;18.30;94.70;;;;;;5030530;28;20068;-73
2023/07/26 12:59:14;;;;;;;2.85;1.40;;;18.40;94.60;;;;;;4995614;28;20041;-73
2023/07/26 13:02:00;;;;;;;2.78;1.42;;;18.60;94.80;;;;;;5037550;28;20117;-74
2023/07/26 13:04:46;;;;;;;4.32;1.60;;;19.00;95.40;;;;;;5019283;28;20118;-74
2023/07/26 13:07:32;;;;;;;2.90;1.42;;;18.70;94.00;;;;;;5036944;28;20037;-74
2023/07/26 13:10:18;;;;;;;2.10;1.30;;;18.40;94.20;;;;;;5003503;28;20053;-74
2023/07/26 13:13:04;;;;;;;2.10;1.30;;;18.50;94.60;;;;;;4985946;28;20052;-74
2023/07/26 13:15:50;;;;;;;3.45;1.30;;;18.30;92.50;;;;;;4996970;28;20060;-74
2023/07/26 13:18:36;;;;;;;1.92;1.20;;;18.30;93.30;;;;;;4978519;28;20045;-75
2023/07/26 13:21:22;;;;;;;2.72;1.30;;;18.20;93.60;;;;;;5010344;28;20127;-74
2023/07/26 13:24:08;;;;;;;1.90;1.25;;;18.40;93.20;;;;;;5008166;28;20049;-74
2023/07/26 13:26:56;;;;;;;3.03;1.45;;;18.70;93.10;;;;;;5001684;28;20044;-75
2023/07/26 13:29:42;;;;;;;2.33;1.50;;;18.50;93.20;;;;;;5009374;28;20080;-74
2023/07/26 13:32:28;;;;;;;2.42;1.20;;;18.60;93.40;;;;;;4969151;28;20045;-75
2023/07/26 13:35:14;;;;;;;1.85;1.20;;;18.80;93.60;;;;;;4996846;28;20111;-74
2023/07/26 13:37:59;;;;;;;3.92;1.50;;;18.90;93.30;;;;;;5007201;28;20161;-74
2023/07/26 13:40:46;;;;;;;3.30;1.33;;;18.80;92.60;;;;;;4996870;28;20042;-75
2023/07/26 13:43:31;;;;;;;1.88;1.20;;;19.20;93.20;;;;;;5008173;28;20046;-75
2023/07/26 13:46:17;;;;;;;2.03;1.23;;;19.30;92.80;;;;;;4991429;28;20052;-75
2023/07/26 13:49:04;;;;;;;3.40;1.58;;;19.10;92.70;;;;;;5010580;28;20096;-74
2023/07/26 13:51:50;;;;;;;2.85;1.75;;;19.40;92.60;;;;;;4981976;28;20046;-75
2023/07/26 13:54:37;;;;;;;2.70;1.60;;;19.50;92.50;;;;;;5005439;28;20045;-75
2023/07/26 13:57:23;;;;;;;5.28;1.52;;;19.50;91.80;;;;;;4996641;28;20053;-75
2023/07/26 14:00:09;;;;;;;4.18;1.50;;;19.70;92.00;;;;;;4981409;28;20514;-75
2023/07/26 14:02:55;;;;;;;2.90;1.35;;;19.90;91.80;;;;;;4981937;28;20045;-76
2023/07/26 14:05:41;;;;;;;2.80;1.50;;;20.20;92.10;;;;;;4996303;28;20129;-77
2023/07/26 14:08:27;;;;;;;5.07;1.63;;;20.60;91.60;;;;;;4995739;28;20068;-75
2023/07/26 14:11:13;;;;;;;2.83;1.65;;;20.30;90.30;;;;;;5008182;28;20553;-76
2023/07/26 14:14:02;;;;;;;2.88;1.50;;;20.20;90.00;;;;;;4967693;28;20042;-74
2023/07/26 14:16:48;;;;;;;2.15;1.45;;;20.00;91.20;;;;;;5003268;28;20083;-74
2023/07/26 14:19:34;;;;;;;4.28;1.60;;;20.00;91.60;;;;;;4975230;28;20046;-75
2023/07/26 14:22:20;;;;;;;3.38;1.88;;;19.80;90.30;;;;;;5008882;28;20046;-75
2023/07/26 14:25:08;;;;;;;5.72;2.10;;;19.80;90.60;;;;;;4979669;28;20374;-75
2023/07/26 14:27:54;;;;;;;4.03;1.83;;;20.20;90.50;;;;;;5000350;28;20329;-77